Time;durP1;ratioP1;P1;durP2;ratioP2;P2;SDS_P1;SDS_P2;PMS_P1;PMS_P2;Temp;Humidity;BMP_temperature;BMP_pressure;BME280_temperature;BME280_humidity;BME280_pressure;Samples;Min_cycle;Max_cycle;Signal;HPM_P1;HPM_P2
2023/07/29 00:02:24;;;;;;;4.10;2.70;;;;;;;19.61;100.00;98934.78;104512;1257;73041;-63
2023/07/29 00:04:52;;;;;;;4.90;2.90;;;;;;;19.63;100.00;98931.36;104403;1257;69975;-63
2023/07/29 00:07:20;;;;;;;3.40;3.10;;;;;;;19.65;100.00;98927.98;104262;1257;72330;-63
2023/07/29 00:09:47;;;;;;;3.10;2.80;;;;;;;19.63;100.00;98930.78;104382;1258;62409;-62
2023/07/29 00:12:16;;;;;;;;;;;;;;;19.62;100.00;98932.16;104450;1251;60520;-64
2023/07/29 00:14:43;;;;;;;3.40;2.80;;;;;;;19.58;100.00;98928.97;104507;1251;73705;-63
2023/07/29 00:17:11;;;;;;;3.30;3.00;;;;;;;19.55;100.00;98926.44;104516;1251;69074;-62
2023/07/29 00:19:39;;;;;;;4.10;2.90;;;;;;;19.56;100.00;98923.13;104397;1256;72211;-63
2023/07/29 00:22:08;;;;;;;;;;;;;;;19.57;100.00;98923.72;104337;1256;62361;-62
2023/07/29 00:24:36;;;;;;;3.40;3.10;;;;;;;19.57;100.00;98927.67;104399;1253;60431;-63
2023/07/29 00:27:04;;;;;;;2.80;2.50;;;;;;;19.57;100.00;98924.85;104478;1256;73753;-64
2023/07/29 00:29:31;;;;;;;;;;;;;;;19.58;100.00;98922.38;104636;1255;70087;-63
2023/07/29 00:31:59;;;;;;;3.60;3.00;;;;;;;19.57;100.00;98919.98;104390;1260;72891;-63
2023/07/29 00:34:26;;;;;;;3.80;3.20;;;;;;;19.56;100.00;98919.54;104497;1254;61838;-62
2023/07/29 00:36:54;;;;;;;3.70;2.70;;;;;;;19.57;100.00;98918.78;104433;1253;60427;-63
2023/07/29 00:39:22;;;;;;;;;;;;;;;19.57;100.00;98919.33;104630;1251;73405;-63
2023/07/29 00:41:50;;;;;;;2.70;2.50;;;;;;;19.57;100.00;98919.34;104357;1254;68773;-62
2023/07/29 00:44:18;;;;;;;6.30;3.10;;;;;;;19.55;100.00;98918.42;104308;1258;72674;-62
2023/07/29 00:46:45;;;;;;;4.20;2.90;;;;;;;19.59;100.00;98923.40;104296;1254;61476;-64
2023/07/29 00:49:13;;;;;;;2.90;2.70;;;;;;;19.61;100.00;98928.16;104418;1257;59951;-62
2023/07/29 00:51:41;;;;;;;2.70;2.50;;;;;;;19.66;100.00;98927.55;104423;1255;73600;-62
2023/07/29 00:54:09;;;;;;;5.30;3.20;;;;;;;19.69;100.00;98928.70;104455;1257;68246;-62
2023/07/29 00:56:37;;;;;;;6.50;3.10;;;;;;;19.70;100.00;98923.46;104315;1258;73120;-62
2023/07/29 00:59:05;;;;;;;5.80;2.70;;;;;;;19.72;100.00;98929.70;104695;1255;62351;-63
2023/07/29 01:01:32;;;;;;;3.40;2.70;;;;;;;19.72;100.00;98928.27;104372;1256;60497;-62
2023/07/29 01:04:00;;;;;;;6.00;2.60;;;;;;;19.73;100.00;98927.45;104407;1254;73714;-62
2023/07/29 01:06:39;;;;;;;3.90;2.50;;;;;;;19.74;100.00;98928.59;104454;1264;68128;-62
2023/07/29 01:09:33;;;;;;;6.10;2.70;;;;;;;19.75;100.00;98927.27;107583;1253;72356;-63
2023/07/29 01:12:09;;;;;;;4.20;2.40;;;;;;;19.74;100.00;98929.50;104372;1267;61463;-62
2023/07/29 01:14:56;;;;;;;4.00;2.70;;;;;;;19.74;100.00;98926.32;105931;1251;60602;-62
2023/07/29 01:17:31;;;;;;;2.80;2.50;;;;;;;19.74;100.00;98926.63;108475;1251;73707;-65
2023/07/29 01:20:09;;;;;;;3.40;2.50;;;;;;;19.74;100.00;98921.15;105621;1266;70288;-64
2023/07/29 01:22:39;;;;;;;4.90;2.50;;;;;;;19.75;100.00;98921.41;104485;1274;72914;-62
2023/07/29 01:25:07;;;;;;;2.70;2.50;;;;;;;19.75;100.00;98916.98;104527;1257;61372;-62
2023/07/29 01:27:35;;;;;;;2.90;2.50;;;;;;;19.76;100.00;98919.21;104835;1251;60532;-62
2023/07/29 01:30:03;;;;;;;3.70;2.80;;;;;;;19.77;100.00;98921.44;104419;1253;74057;-61
2023/07/29 01:32:53;;;;;;;3.90;2.70;;;;;;;19.79;100.00;98922.64;104285;1257;69591;-61
2023/07/29 01:35:24;;;;;;;3.00;2.50;;;;;;;19.80;100.00;98928.06;104410;1263;72483;-61
2023/07/29 01:37:54;;;;;;;4.30;2.30;;;;;;;19.81;100.00;98927.61;103620;1269;1129049;-62
2023/07/29 01:41:51;;;;;;;3.00;2.80;;;;;;;19.53;100.00;98933.22;101436;1294;601739;-61
2023/07/29 01:44:19;;;;;;;4.10;2.80;;;;;;;19.80;100.00;98930.02;103540;1270;60532;-61
2023/07/29 01:46:47;;;;;;;4.90;2.80;;;;;;;19.83;100.00;98933.42;103386;1272;59687;-61
2023/07/29 01:49:15;;;;;;;4.80;2.40;;;;;;;19.83;100.00;98934.35;103553;1267;71935;-61
2023/07/29 01:51:43;;;;;;;2.90;2.70;;;;;;;19.81;100.00;98934.72;103871;1269;70540;-61
2023/07/29 01:54:11;;;;;;;3.20;2.20;;;;;;;19.81;100.00;98938.66;103534;1287;72403;-61
2023/07/29 01:56:39;;;;;;;3.90;2.70;;;;;;;19.76;100.00;98937.13;103939;1268;216333;-63
2023/07/29 01:59:06;;;;;;;3.60;2.80;;;;;;;19.76;100.00;98935.95;103999;1265;59449;-62
2023/07/29 02:01:34;;;;;;;3.90;2.60;;;;;;;19.73;100.00;98938.13;103764;1272;72917;-63
2023/07/29 02:04:02;;;;;;;3.50;2.50;;;;;;;19.67;100.00;98935.31;104042;1264;69553;-63
2023/07/29 02:06:29;;;;;;;3.60;3.00;;;;;;;19.66;100.00;98934.27;103978;1268;72899;-63
2023/07/29 02:08:57;;;;;;;2.70;2.50;;;;;;;19.67;100.00;98935.45;103745;1270;61678;-62
2023/07/29 02:11:27;;;;;;;2.80;2.60;;;;;;;19.66;100.00;98933.93;103929;1268;60105;-63
2023/07/29 02:13:55;;;;;;;3.30;3.00;;;;;;;19.63;100.00;98930.25;103893;1274;73306;-63
2023/07/29 02:16:23;;;;;;;;;;;;;;;19.62;100.00;98929.86;106299;1262;69210;-64
2023/07/29 02:18:51;;;;;;;3.40;2.50;;;;;;;19.62;100.00;98933.99;107416;1259;73270;-63
2023/07/29 02:21:22;;;;;;;6.50;2.70;;;;;;;19.60;100.00;98940.18;104127;1262;64148;-64
2023/07/29 02:23:50;;;;;;;4.60;2.70;;;;;;;19.59;100.00;98940.77;104151;1261;59643;-64
2023/07/29 02:26:18;;;;;;;3.50;2.80;;;;;;;19.59;100.00;98941.37;103992;1265;73275;-63
2023/07/29 02:28:46;;;;;;;5.30;2.90;;;;;;;19.60;100.00;98945.69;104057;1263;68425;-64
2023/07/29 02:31:14;;;;;;;;;;;;;;;19.64;100.00;98943.36;104134;1265;73116;-64
2023/07/29 02:33:42;;;;;;;;;;;;;;;19.61;100.00;98941.69;104100;1265;61336;-64
2023/07/29 02:36:10;;;;;;;;;;;;;;;19.60;100.00;98941.45;103873;1261;60377;-64
2023/07/29 02:38:39;;;;;;;3.60;2.90;;;;;;;19.56;100.00;98944.48;103973;1262;73702;-64
2023/07/29 02:41:09;;;;;;;4.30;2.60;;;;;;;19.55;100.00;98949.05;103913;1259;70090;-64
2023/07/29 02:43:37;;;;;;;3.30;2.70;;;;;;;19.53;100.00;98951.86;104028;1265;72255;-62
2023/07/29 02:46:04;;;;;;;2.70;2.50;;;;;;;19.54;100.00;98950.15;103900;1276;63073;-63
2023/07/29 02:48:32;;;;;;;3.00;2.50;;;;;;;19.56;100.00;98952.13;103864;1260;59727;-63
2023/07/29 02:51:00;;;;;;;2.50;2.30;;;;;;;19.58;100.00;98952.80;103960;1278;73219;-63
2023/07/29 02:53:28;;;;;;;3.30;2.50;;;;;;;19.62;100.00;98951.92;104372;1264;68202;-64
2023/07/29 02:55:55;;;;;;;4.40;2.90;;;;;;;19.60;100.00;98954.55;103944;1263;72914;-63
2023/07/29 02:58:23;;;;;;;3.70;3.10;;;;;;;19.60;100.00;98952.45;104127;1265;61395;-62
2023/07/29 03:00:53;;;;;;;3.90;2.90;;;;;;;19.62;100.00;98952.42;103993;1262;59787;-63
2023/07/29 03:03:20;;;;;;;;;;;;;;;19.59;100.00;98953.66;104156;1260;73243;-61
2023/07/29 03:05:48;;;;;;;4.80;2.60;;;;;;;19.54;100.00;98955.15;103876;1265;69462;-64
2023/07/29 03:08:16;;;;;;;5.50;3.00;;;;;;;19.52;100.00;98958.71;103848;1277;73373;-63
2023/07/29 03:10:44;;;;;;;4.30;2.80;;;;;;;19.53;100.00;98962.17;104436;1262;61822;-64
2023/07/29 03:13:11;;;;;;;3.10;2.80;;;;;;;19.47;100.00;98964.15;104997;1259;59772;-63
2023/07/29 03:15:39;;;;;;;3.20;2.50;;;;;;;19.41;100.00;98964.09;103926;1275;72015;-62
2023/07/29 03:18:07;;;;;;;4.40;2.70;;;;;;;19.38;100.00;98964.93;103938;1264;69565;-62
2023/07/29 03:20:34;;;;;;;3.20;2.90;;;;;;;19.36;100.00;98965.79;104016;1260;72614;-64
2023/07/29 03:23:02;;;;;;;6.50;3.00;;;;;;;19.35;100.00;98968.23;103735;1260;60471;-64
2023/07/29 03:25:30;;;;;;;5.50;2.70;;;;;;;19.27;100.00;98965.75;103929;1263;59591;-63
2023/07/29 03:27:58;;;;;;;4.20;2.90;;;;;;;19.25;100.00;98963.83;103898;1279;72897;-63
2023/07/29 03:30:25;;;;;;;;;;;;;;;19.25;100.00;98966.63;103778;1280;69615;-64
2023/07/29 03:32:53;;;;;;;3.70;2.70;;;;;;;19.27;100.00;98970.16;103993;1265;72644;-63
2023/07/29 03:35:21;;;;;;;3.00;2.50;;;;;;;19.27;100.00;98968.20;103964;1264;61474;-63
2023/07/29 03:37:49;;;;;;;5.10;2.70;;;;;;;19.28;100.00;98968.48;104062;1259;60636;-62
2023/07/29 03:40:18;;;;;;;3.30;3.00;;;;;;;19.30;100.00;98965.95;103911;1270;72785;-61
2023/07/29 03:42:45;;;;;;;4.50;2.60;;;;;;;19.33;100.00;98963.41;104024;1261;69026;-63
2023/07/29 03:45:13;;;;;;;;;;;;;;;19.37;100.00;98964.67;103961;1267;72344;-63
2023/07/29 03:47:41;;;;;;;2.80;2.60;;;;;;;19.41;100.00;98963.55;104068;1262;61425;-63
2023/07/29 03:50:09;;;;;;;;;;;;;;;19.49;100.00;98964.71;104004;1267;60113;-63
2023/07/29 03:52:37;;;;;;;5.10;2.60;;;;;;;19.54;100.00;98968.09;104000;1276;73016;-63
2023/07/29 03:55:05;;;;;;;3.70;2.80;;;;;;;19.60;100.00;98971.12;104081;1278;69850;-63
2023/07/29 03:57:33;;;;;;;2.90;2.50;;;;;;;19.65;100.00;98971.88;104203;1257;72485;-63
2023/07/29 04:00:00;;;;;;;4.40;2.50;;;;;;;19.75;100.00;98969.44;103968;1264;61445;-62
2023/07/29 04:02:29;;;;;;;3.10;2.90;;;;;;;19.83;100.00;98966.21;104048;1257;59791;-62
2023/07/29 04:04:57;;;;;;;3.90;2.50;;;;;;;19.91;100.00;98965.45;104091;1263;72841;-66
2023/07/29 04:07:25;;;;;;;7.30;2.70;;;;;;;19.98;100.00;98963.64;104215;1262;69516;-63
2023/07/29 04:09:52;;;;;;;3.20;2.70;;;;;;;20.04;100.00;98966.25;104082;1269;72561;-63
2023/07/29 04:12:21;;;;;;;2.90;2.50;;;;;;;20.13;100.00;98962.73;104085;1264;61461;-63
2023/07/29 04:14:49;;;;;;;2.50;2.30;;;;;;;20.24;100.00;98961.13;104291;1257;59695;-63
2023/07/29 04:17:17;;;;;;;4.50;2.80;;;;;;;20.35;100.00;98961.05;105241;1257;73536;-64
2023/07/29 04:19:44;;;;;;;4.10;3.30;;;;;;;20.45;100.00;98965.74;107688;1255;69076;-61
2023/07/29 04:22:12;;;;;;;3.30;2.30;;;;;;;20.56;100.00;98975.81;105209;1260;72364;-61
2023/07/29 04:24:40;;;;;;;5.30;2.50;;;;;;;20.66;100.00;98972.77;104520;1258;61889;-60
2023/07/29 04:27:07;;;;;;;4.20;2.60;;;;;;;20.74;100.00;98976.10;104571;1257;59849;-69
2023/07/29 04:29:35;;;;;;;3.10;2.80;;;;;;;20.77;100.00;98976.25;104224;1267;73814;-61
2023/07/29 04:32:03;;;;;;;;;;;;;;;20.76;100.00;98975.52;104118;1274;69604;-64
2023/07/29 04:34:32;;;;;;;3.80;2.40;;;;;;;20.72;100.00;98974.64;104089;1262;72347;-62
2023/07/29 04:37:00;;;;;;;4.60;2.40;;;;;;;20.71;100.00;98972.45;104345;1257;61410;-63
2023/07/29 04:39:28;;;;;;;2.80;2.30;;;;;;;20.68;100.00;98968.64;103991;1262;59750;-63
2023/07/29 04:41:57;;;;;;;2.40;2.20;;;;;;;20.68;100.00;98970.04;104255;1260;73515;-62
2023/07/29 04:44:25;;;;;;;2.70;2.50;;;;;;;20.73;100.00;98974.19;104133;1264;69065;-63
2023/07/29 04:46:52;;;;;;;2.50;2.30;;;;;;;20.75;100.00;98977.02;104224;1257;72360;-63
2023/07/29 04:49:20;;;;;;;6.00;2.50;;;;;;;20.75;100.00;98975.21;104251;1256;61409;-63
2023/07/29 04:51:48;;;;;;;;;;;;;;;20.76;100.00;98981.21;104208;1262;59750;-63
2023/07/29 04:54:16;;;;;;;2.70;2.50;;;;;;;20.77;100.00;98981.43;104244;1261;72936;-63
2023/07/29 04:56:43;;;;;;;3.30;2.70;;;;;;;20.79;100.00;98980.21;104148;1270;68145;-63
2023/07/29 04:59:12;;;;;;;5.20;2.60;;;;;;;20.80;100.00;98981.90;104130;1261;72349;-63
2023/07/29 05:01:42;;;;;;;4.30;2.60;;;;;;;20.83;100.00;98982.16;104061;1262;61405;-62
2023/07/29 05:04:10;;;;;;;3.00;2.70;;;;;;;20.84;100.00;98976.36;104111;1260;59694;-61
2023/07/29 05:06:38;;;;;;;;;;;;;;;20.85;100.00;98981.75;104144;1275;72952;-62
2023/07/29 05:09:17;;;;;;;7.20;2.80;;;;;;;20.86;100.00;98982.74;104237;1262;68740;-61
2023/07/29 05:11:45;;;;;;;3.00;2.60;;;;;;;20.89;100.00;98982.30;104118;1262;72719;-62
2023/07/29 05:14:13;;;;;;;3.10;2.80;;;;;;;20.97;100.00;98985.08;106164;1257;62316;-58
2023/07/29 05:16:41;;;;;;;2.60;2.40;;;;;;;21.06;100.00;98980.33;104075;1258;59721;-57
2023/07/29 05:19:10;;;;;;;4.70;2.70;;;;;;;21.12;100.00;98980.27;104076;1262;73221;-58
2023/07/29 05:21:38;;;;;;;5.50;2.60;;;;;;;21.17;100.00;98981.52;104045;1278;69421;-60
2023/07/29 05:24:06;;;;;;;3.20;2.80;;;;;;;21.20;100.00;98973.42;104268;1262;73394;-60
2023/07/29 05:26:33;;;;;;;3.00;2.60;;;;;;;21.21;100.00;98973.17;104083;1264;61773;-61
2023/07/29 05:29:03;;;;;;;2.90;2.60;;;;;;;21.24;100.00;98967.89;104240;1262;60203;-61
2023/07/29 05:31:31;;;;;;;3.30;2.70;;;;;;;21.31;100.00;98968.96;104177;1266;73243;-61
2023/07/29 05:33:59;;;;;;;;;;;;;;;21.42;100.00;98967.91;104021;1279;69980;-61
2023/07/29 05:36:27;;;;;;;2.80;2.50;;;;;;;21.46;100.00;98970.88;104072;1276;71795;-61
2023/07/29 05:38:55;;;;;;;2.90;2.70;;;;;;;21.48;100.00;98973.70;104091;1262;61427;-61
2023/07/29 05:41:22;;;;;;;;;;;;;;;21.55;100.00;98979.10;104138;1262;60251;-60
2023/07/29 05:43:50;;;;;;;;;;;;;;;21.61;100.00;98985.29;104161;1262;72768;-61
2023/07/29 05:46:18;;;;;;;3.30;2.80;;;;;;;21.66;100.00;98982.61;104137;1263;69538;-62
2023/07/29 05:48:45;;;;;;;4.70;2.50;;;;;;;21.71;100.00;98985.58;104172;1260;72485;-61
2023/07/29 05:51:13;;;;;;;2.90;2.50;;;;;;;21.74;100.00;98986.84;104210;1257;60793;-61
2023/07/29 05:53:41;;;;;;;2.60;2.40;;;;;;;21.78;100.00;98984.08;104296;1257;60499;-67
2023/07/29 05:56:10;;;;;;;2.90;2.60;;;;;;;21.86;100.00;98980.19;104178;1254;73678;-67
2023/07/29 05:58:38;;;;;;;3.70;2.90;;;;;;;21.95;100.00;98981.00;104350;1257;69064;-68
2023/07/29 06:01:06;;;;;;;5.40;2.70;;;;;;;21.99;100.00;98980.63;104400;1261;72993;-67
2023/07/29 06:03:34;;;;;;;;;;;;;;;22.04;100.00;98978.10;104485;1253;61793;-67
2023/07/29 06:06:02;;;;;;;2.60;2.40;;;;;;;22.04;100.00;98970.44;104308;1259;61919;-67
2023/07/29 06:08:32;;;;;;;;;;;;;;;22.07;100.00;98972.33;104312;1273;73700;-62
2023/07/29 06:11:00;;;;;;;5.60;2.90;;;;;;;22.11;100.00;98978.11;104317;1261;69218;-65
2023/07/29 06:13:28;;;;;;;2.80;2.60;;;;;;;22.16;100.00;98983.11;104560;1259;71250;-67
2023/07/29 06:15:56;;;;;;;3.90;2.70;;;;;;;22.25;100.00;98982.96;104564;1263;61396;-66
2023/07/29 06:18:25;;;;;;;2.90;2.60;;;;;;;22.35;100.00;98982.20;104660;1259;59706;-68
2023/07/29 08:33:02;;;;;;;3.30;2.40;;;;;;;24.87;100.00;98951.23;102318;1284;601123;-61
2023/07/29 08:35:30;;;;;;;2.30;2.10;;;;;;;24.93;100.00;98953.71;103604;1271;61778;-62
2023/07/29 08:37:59;;;;;;;2.80;2.40;;;;;;;24.93;100.00;98948.23;103471;1283;60049;-60
2023/07/29 08:40:28;;;;;;;3.00;2.20;;;;;;;24.99;100.00;98942.99;103532;1266;72002;-60
2023/07/29 08:42:55;;;;;;;3.60;2.20;;;;;;;25.04;100.00;98936.92;103597;1282;70037;-59
2023/07/29 08:45:23;;;;;;;3.30;2.00;;;;;;;25.09;100.00;98937.17;103746;1265;72511;-59
2023/07/29 08:47:53;;;;;;;2.30;2.10;;;;;;;25.19;100.00;98937.85;104572;1264;243761;-61
2023/07/29 08:50:21;;;;;;;2.20;2.00;;;;;;;25.23;100.00;98939.23;104960;1265;60711;-61
2023/07/29 08:52:48;;;;;;;2.40;2.10;;;;;;;25.34;100.00;98930.13;103824;1278;71554;-60
2023/07/29 08:55:16;;;;;;;2.70;2.50;;;;;;;25.45;100.00;98926.13;103757;1270;69841;-59
2023/07/29 08:57:44;;;;;;;2.60;2.20;;;;;;;25.57;100.00;98929.69;103645;1273;72487;-60
2023/07/29 09:00:12;;;;;;;2.40;2.20;;;;;;;25.66;100.00;98926.79;103914;1266;62377;-59
2023/07/29 09:02:39;;;;;;;5.10;2.20;;;;;;;25.68;100.00;98922.35;103796;1267;59682;-60
2023/07/29 09:05:08;;;;;;;2.30;2.00;;;;;;;25.78;100.00;98924.10;103888;1268;73069;-59
2023/07/29 09:07:35;;;;;;;1.90;1.80;;;;;;;25.84;100.00;98924.60;104052;1269;69117;-59
2023/07/29 09:10:04;;;;;;;3.10;1.60;;;;;;;25.86;100.00;98927.62;103592;1273;72892;-60
2023/07/29 09:12:31;;;;;;;2.40;1.80;;;;;;;25.92;100.00;98923.18;103979;1265;62423;-59
2023/07/29 09:14:59;;;;;;;1.90;1.70;;;;;;;25.98;100.00;98919.16;103408;1264;60009;-61
2023/07/29 09:17:26;;;;;;;2.20;2.00;;;;;;;26.09;100.00;98919.53;104023;1264;72765;-60
2023/07/29 09:19:54;;;;;;;2.30;1.90;;;;;;;26.24;100.00;98920.02;103524;1267;69159;-62
2023/07/29 09:22:22;;;;;;;2.70;1.80;;;;;;;26.33;100.00;98912.27;103902;1267;72651;-61
2023/07/29 09:24:49;;;;;;;;;;;;;;;26.27;100.00;98916.86;103900;1279;61385;-61
2023/07/29 09:27:27;;;;;;;2.70;1.70;;;;;;;26.18;100.00;98913.21;103857;1267;59776;-61
2023/07/29 09:29:56;;;;;;;2.00;1.80;;;;;;;26.18;100.00;98911.13;104005;1278;72599;-61
2023/07/29 09:32:25;;;;;;;2.00;1.60;;;;;;;26.16;100.00;98906.60;103763;1270;69205;-62
2023/07/29 09:34:52;;;;;;;1.80;1.70;;;;;;;26.20;100.00;98906.69;103972;1281;72527;-62
2023/07/29 09:37:20;;;;;;;;;;;;;;;26.34;100.00;98906.68;104077;1264;61440;-61
2023/07/29 09:39:49;;;;;;;2.90;2.00;;;;;;;26.31;100.00;98912.09;104158;1256;59657;-61
2023/07/29 09:42:20;;;;;;;;;;;;;;;26.10;100.00;98915.28;104272;1272;72799;-60
2023/07/29 09:44:49;;;;;;;1.90;1.80;;;;;;;25.98;100.00;98915.23;104093;1256;69434;-61
2023/07/29 09:47:24;;;;;;;2.70;1.60;;;;;;;26.08;100.00;98915.67;104128;1261;72838;-60
2023/07/29 09:49:52;;;;;;;3.60;1.90;;;;;;;26.23;100.00;98907.27;104086;1261;62352;-61
2023/07/29 09:52:21;;;;;;;2.00;1.80;;;;;;;26.37;100.00;98906.24;104106;1260;59656;-60
2023/07/29 09:54:49;;;;;;;2.60;1.70;;;;;;;26.47;100.00;98906.00;104297;1256;72861;-61
2023/07/29 09:57:17;;;;;;;;;;;;;;;26.57;100.00;98903.73;104194;1260;69729;-59
2023/07/29 09:59:55;;;;;;;2.30;1.70;;;;;;;26.67;100.00;98902.94;103982;1272;72388;-60
2023/07/29 10:02:25;;;;;;;2.10;2.00;;;;;;;26.64;100.00;98904.65;104245;1256;61920;-61
2023/07/29 10:04:53;;;;;;;1.90;1.80;;;;;;;26.64;100.00;98897.30;104133;1260;60714;-62
2023/07/29 10:07:20;;;;;;;;;;;;;;;26.68;100.00;98898.31;104205;1259;73704;-61
2023/07/29 10:09:48;;;;;;;;;;;;;;;26.68;100.00;98894.79;104033;1260;69409;-63
2023/07/29 10:12:16;;;;;;;1.90;1.80;;;;;;;26.69;100.00;98891.44;104071;1259;72917;-60
2023/07/29 10:14:45;;;;;;;1.60;1.50;;;;;;;26.72;100.00;98897.27;104110;1263;61429;-59
2023/07/29 10:17:14;;;;;;;4.70;1.40;;;;;;;26.74;100.00;98893.50;104192;1260;59923;-60
2023/07/29 10:19:43;;;;;;;1.80;1.70;;;;;;;26.75;100.00;98896.29;104047;1272;73041;-60
2023/07/29 10:22:10;;;;;;;4.80;2.00;;;;;;;26.78;100.00;98894.52;107714;1257;69666;-61
2023/07/29 10:24:41;;;;;;;1.60;1.50;;;;;;;26.92;100.00;98887.27;107662;1258;73179;-61
2023/07/29 10:27:08;;;;;;;4.00;1.70;;;;;;;27.05;100.00;98884.93;107579;1256;61860;-61
2023/07/29 10:29:38;;;;;;;2.20;1.70;;;;;;;27.21;100.00;98890.23;107462;1257;59668;-61
2023/07/29 10:32:06;;;;;;;1.90;1.50;;;;;;;27.30;100.00;98883.08;107655;1256;73777;-60
2023/07/29 10:34:36;;;;;;;;;;;;;;;27.38;100.00;98888.94;107504;1257;69077;-62
2023/07/29 10:37:04;;;;;;;2.10;1.50;;;;;;;27.50;100.00;98885.02;107752;1256;72335;-60
2023/07/29 10:39:39;;;;;;;2.20;1.50;;;;;;;27.70;100.00;98887.55;107941;1256;60793;-61
2023/07/29 10:42:07;;;;;;;2.30;1.80;;;;;;;27.78;100.00;98888.95;108017;1256;59711;-61
2023/07/29 10:44:51;;;;;;;3.00;1.60;;;;;;;27.82;100.00;98886.04;107968;1256;73792;-61
2023/07/29 10:47:20;;;;;;;3.70;1.60;;;;;;;27.84;100.00;98886.92;107917;1257;68085;-60
2023/07/29 10:49:50;;;;;;;1.60;1.50;;;;;;;27.83;100.00;98889.20;107882;1256;72481;-61
2023/07/29 10:52:36;;;;;;;1.70;1.30;;;;;;;27.82;100.00;98885.54;107813;1257;58882;-61
2023/07/29 10:55:04;;;;;;;1.70;1.60;;;;;;;27.88;100.00;98889.63;107902;1256;59940;-61
2023/07/29 10:57:32;;;;;;;;;;;;;;;27.94;100.00;98883.30;107678;1256;73311;-61
2023/07/29 11:00:00;;;;;;;2.20;1.50;;;;;;;28.04;100.00;98885.61;107880;1256;69194;-61
2023/07/29 11:02:34;;;;;;;1.50;1.40;;;;;;;28.09;100.00;98885.48;107788;1256;72473;-62
2023/07/29 11:05:06;;;;;;;1.90;1.70;;;;;;;28.15;100.00;98882.11;107824;1256;60162;-61
2023/07/29 11:07:54;;;;;;;1.70;1.40;;;;;;;28.13;100.00;98878.73;107956;1256;59820;-62
2023/07/29 11:10:22;;;;;;;4.90;1.40;;;;;;;28.00;100.00;98883.13;107849;1257;72903;-60
2023/07/29 11:12:51;;;;;;;2.50;1.50;;;;;;;27.76;100.00;98889.90;107889;1256;69785;-61
2023/07/29 11:15:24;;;;;;;1.90;1.70;;;;;;;27.65;100.00;98893.23;107957;1256;72864;-60
2023/07/29 11:17:52;;;;;;;1.80;1.40;;;;;;;27.68;100.00;98888.80;107962;1256;59277;-61
2023/07/29 11:20:31;;;;;;;3.10;1.40;;;;;;;27.79;100.00;98883.93;107895;1256;60720;-61
2023/07/29 11:23:02;;;;;;;1.80;1.60;;;;;;;28.02;100.00;98879.23;107995;1256;73706;-60
2023/07/29 11:25:30;;;;;;;2.10;1.30;;;;;;;28.21;100.00;98869.63;107922;1256;68208;-61
2023/07/29 11:27:58;;;;;;;2.80;1.40;;;;;;;28.23;100.00;98868.28;107991;1256;72535;-62
2023/07/29 11:30:27;;;;;;;1.60;1.50;;;;;;;28.10;100.00;98865.98;107841;1256;60273;-61
2023/07/29 11:32:55;;;;;;;1.40;1.30;;;;;;;28.07;100.00;98869.42;107970;1256;59677;-61
2023/07/29 11:35:23;;;;;;;1.50;1.40;;;;;;;28.18;100.00;98866.34;107877;1256;72842;-60
2023/07/29 11:37:51;;;;;;;3.10;1.40;;;;;;;28.29;100.00;98863.90;108004;1256;69798;-62
2023/07/29 11:40:22;;;;;;;1.70;1.60;;;;;;;28.40;100.00;98866.13;107818;1256;73195;-62
2023/07/29 11:42:51;;;;;;;1.50;1.30;;;;;;;28.46;100.00;98869.04;107841;1257;58886;-61
2023/07/29 11:45:20;;;;;;;1.20;1.20;;;;;;;28.55;100.00;98864.45;107978;1256;60640;-61
2023/07/29 11:47:48;;;;;;;2.60;1.30;;;;;;;28.67;97.46;98863.13;107869;1256;72892;-61
2023/07/29 11:50:15;;;;;;;;;;;;;;;28.78;98.28;98864.08;108002;1256;70026;-60
2023/07/29 11:52:44;;;;;;;1.30;1.20;;;;;;;28.81;96.83;98864.02;107878;1256;72909;-60
2023/07/29 11:55:13;;;;;;;2.20;1.20;;;;;;;28.77;94.61;98868.50;107972;1256;60869;-60
2023/07/29 11:57:41;;;;;;;1.30;1.20;;;;;;;28.78;93.41;98866.61;107870;1257;59682;-60
2023/07/29 12:00:11;;;;;;;1.30;1.20;;;;;;;28.84;94.06;98867.31;107951;1256;72871;-60
2023/07/29 12:02:41;;;;;;;1.40;1.30;;;;;;;28.94;95.52;98867.13;107903;1256;69487;-63
2023/07/29 12:05:09;;;;;;;1.80;1.30;;;;;;;29.03;95.29;98862.53;107919;1257;71692;-62
2023/07/29 12:07:38;;;;;;;1.10;1.10;;;;;;;29.11;94.47;98860.34;107741;1256;60290;-62
2023/07/29 12:10:06;;;;;;;2.60;1.30;;;;;;;29.17;95.79;98862.98;108015;1256;60066;-62
2023/07/29 12:12:34;;;;;;;2.40;1.20;;;;;;;29.15;95.66;98864.92;107925;1256;72215;-60
2023/07/29 12:15:02;;;;;;;2.60;1.40;;;;;;;29.18;94.28;98862.36;107785;1257;68145;-62
2023/07/29 12:17:30;;;;;;;1.30;0.90;;;;;;;29.25;88.54;98860.34;107890;1256;73371;-60
2023/07/29 12:19:57;;;;;;;1.40;1.30;;;;;;;29.25;88.23;98860.58;107973;1256;60150;-60
2023/07/29 12:22:25;;;;;;;1.30;1.20;;;;;;;29.26;88.72;98862.21;107649;1256;60086;-62
2023/07/29 12:24:53;;;;;;;1.60;1.20;;;;;;;29.33;89.50;98860.34;107646;1256;72720;-62
2023/07/29 12:27:21;;;;;;;1.50;1.40;;;;;;;29.40;83.32;98865.27;107707;1256;68777;-62
2023/07/29 12:29:49;;;;;;;1.60;1.10;;;;;;;29.38;78.16;98861.17;107827;1256;73338;-62
2023/07/29 12:32:16;;;;;;;1.30;1.20;;;;;;;29.41;83.65;98868.36;107477;1257;60307;-62
2023/07/29 12:34:44;;;;;;;1.50;1.40;;;;;;;29.43;79.70;98867.52;107665;1256;61305;-60
2023/07/29 12:37:11;;;;;;;;;;;;;;;29.34;76.07;98869.59;107758;1256;72932;-61
2023/07/29 12:39:42;;;;;;;2.10;1.10;;;;;;;29.29;75.66;98865.59;108025;1256;69645;-61
2023/07/29 12:42:10;;;;;;;2.30;1.10;;;;;;;29.36;76.85;98872.88;107991;1256;72329;-60
2023/07/29 12:44:37;;;;;;;2.20;1.00;;;;;;;29.41;72.33;98868.35;107849;1257;60437;-60
2023/07/29 12:47:06;;;;;;;1.20;1.20;;;;;;;29.39;73.09;98869.09;107900;1257;59013;-59
2023/07/29 12:49:33;;;;;;;1.00;1.00;;;;;;;29.28;70.30;98869.54;108016;1256;73595;-67
2023/07/29 12:52:02;;;;;;;1.50;1.30;;;;;;;29.25;71.84;98868.79;108029;1256;68217;-61
2023/07/29 12:54:29;;;;;;;1.20;1.00;;;;;;;29.38;74.04;98871.31;107971;1255;72286;-60
2023/07/29 12:57:00;;;;;;;1.60;1.10;;;;;;;29.44;73.65;98871.09;108543;1251;59960;-60
2023/07/29 12:59:28;;;;;;;2.60;1.60;;;;;;;29.52;78.28;98872.61;108600;1253;60127;-60
2023/07/29 13:01:55;;;;;;;2.40;1.30;;;;;;;29.56;78.10;98873.65;108446;1252;73898;-61
2023/07/29 13:04:23;;;;;;;;;;;;;;;29.48;73.39;98875.65;108570;1252;69168;-63
2023/07/29 13:06:50;;;;;;;1.30;1.20;;;;;;;29.33;74.30;98872.04;108559;1251;72686;-59
2023/07/29 13:09:18;;;;;;;;;;;;;;;29.30;75.25;98869.17;108485;1252;59949;-58
2023/07/29 13:11:46;;;;;;;1.60;1.50;;;;;;;29.33;77.53;98869.35;108479;1252;59507;-61
2023/07/29 13:14:14;;;;;;;2.40;1.40;;;;;;;29.31;77.76;98869.05;108446;1252;73549;-62
2023/07/29 13:16:41;;;;;;;;;;;;;;;29.40;81.36;98871.48;108420;1252;69783;-62
2023/07/29 13:19:09;;;;;;;1.40;1.30;;;;;;;29.52;80.16;98869.11;108499;1252;72721;-63
2023/07/29 13:21:36;;;;;;;;;;;;;;;29.67;78.17;98869.11;108507;1251;59869;-62
2023/07/29 13:24:04;;;;;;;2.30;1.40;;;;;;;29.74;75.00;98866.77;108543;1252;59940;-62
2023/07/29 13:26:32;;;;;;;1.70;1.40;;;;;;;29.75;76.46;98870.85;108591;1251;73582;-61
2023/07/29 13:28:59;;;;;;;3.10;1.60;;;;;;;29.65;76.46;98874.12;108432;1252;69188;-61
2023/07/29 13:31:26;;;;;;;;;;;;;;;29.46;73.14;98878.45;108551;1252;72193;-61
2023/07/29 13:33:54;;;;;;;;;;;;;;;29.36;74.40;98878.72;108618;1252;59853;-61
2023/07/29 13:36:22;;;;;;;1.90;1.60;;;;;;;29.28;73.23;98876.03;108470;1253;60458;-61
2023/07/29 13:38:49;;;;;;;3.40;2.00;;;;;;;29.25;74.97;98872.66;108515;1252;74515;-61
2023/07/29 13:41:17;;;;;;;2.20;1.40;;;;;;;29.24;76.83;98874.86;108552;1252;69362;-61
2023/07/29 13:43:45;;;;;;;1.90;1.50;;;;;;;29.14;76.65;98876.83;108553;1251;71597;-62
2023/07/29 13:46:12;;;;;;;2.20;1.70;;;;;;;29.05;79.08;98876.36;108608;1252;59797;-62
2023/07/29 13:48:40;;;;;;;;;;;;;;;29.06;81.99;98879.65;108517;1252;59945;-60